createdAt,value
2023-01-17T00:00:03.703Z,51.60
2023-01-17T00:01:03.590Z,57.44
2023-01-17T00:02:03.596Z,59.95
2023-01-17T00:03:03.614Z,60.47
2023-01-17T00:04:03.601Z,51.52
2023-01-17T00:05:03.577Z,44.66
2023-01-17T00:06:03.580Z,57.66
2023-01-17T00:07:03.580Z,45.88
2023-01-17T00:08:03.554Z,53.43
2023-01-17T00:09:04.391Z,50.60
2023-01-17T00:10:03.528Z,58.20
2023-01-17T00:11:03.525Z,54.14
2023-01-17T00:12:03.510Z,59.50
2023-01-17T00:13:03.548Z,56.05
2023-01-17T00:14:03.513Z,54.40
2023-01-17T00:15:03.491Z,56.56
2023-01-17T00:16:03.490Z,52.35
2023-01-17T00:17:03.473Z,55.13
2023-01-17T00:18:03.971Z,46.61
2023-01-17T00:19:03.470Z,44.05
2023-01-17T00:20:03.449Z,44.49
2023-01-17T00:21:03.467Z,45.84
2023-01-17T00:22:03.440Z,54.04
2023-01-17T00:23:03.431Z,49.81
2023-01-17T00:24:03.421Z,49.45
2023-01-17T00:27:31.615Z,56.12
2023-01-17T00:28:31.625Z,51.09
2023-01-17T00:29:32.698Z,57.62
2023-01-17T00:30:32.708Z,60.44
2023-01-17T00:31:32.705Z,49.45
2023-01-17T00:32:33.558Z,46.09
2023-01-17T00:33:32.700Z,56.17
2023-01-17T00:34:32.664Z,54.25
2023-01-17T00:35:32.651Z,50.98
2023-01-17T00:36:32.644Z,43.98
2023-01-17T00:37:32.629Z,49.35
2023-01-17T00:38:32.630Z,58.23
2023-01-17T00:39:32.623Z,52.44
2023-01-17T00:40:32.616Z,50.08
2023-01-17T00:41:32.605Z,54.66
2023-01-17T00:42:32.605Z,53.66
2023-01-17T00:43:32.597Z,55.75
2023-01-17T00:44:32.576Z,48.85
2023-01-17T00:45:32.569Z,60.74
2023-01-17T00:46:32.625Z,53.03
2023-01-17T00:47:32.549Z,48.63
2023-01-17T00:48:32.552Z,59.99
2023-01-17T00:49:32.559Z,59.17
2023-01-17T00:50:32.525Z,55.24
2023-01-17T00:51:33.068Z,52.19
2023-01-17T00:52:32.519Z,43.45
2023-01-17T00:53:32.532Z,47.50
2023-01-17T00:54:32.512Z,58.15
2023-01-17T00:55:32.497Z,52.28
2023-01-17T00:56:32.493Z,52.10
2023-01-17T00:57:32.478Z,48.20
2023-01-17T00:58:32.580Z,48.41
2023-01-17T00:59:32.462Z,48.98
2023-01-17T01:00:32.521Z,48.54
2023-01-17T01:01:32.533Z,46.23
2023-01-17T01:02:32.552Z,57.83
2023-01-17T01:03:32.441Z,52.63
2023-01-17T01:04:32.429Z,52.34
2023-01-17T01:05:32.425Z,54.88
2023-01-17T01:06:32.410Z,44.29
2023-01-17T01:07:32.399Z,51.44
2023-01-17T01:08:32.402Z,53.56
2023-01-17T01:09:32.379Z,56.64
2023-01-17T01:10:33.094Z,48.94
2023-01-17T01:11:32.377Z,43.39
2023-01-17T01:12:32.363Z,45.33
2023-01-17T01:13:32.345Z,55.68
2023-01-17T01:14:32.327Z,53.90
2023-01-17T01:15:33.339Z,54.89
2023-01-17T01:16:32.390Z,57.80
2023-01-17T01:17:32.339Z,58.93
2023-01-17T01:18:32.308Z,58.94
2023-01-17T01:19:32.388Z,54.09
2023-01-17T01:20:32.312Z,54.03
2023-01-17T01:21:32.295Z,56.56
2023-01-17T01:22:32.290Z,52.39
2023-01-17T01:23:32.295Z,48.83
2023-01-17T01:24:32.294Z,54.15
2023-01-17T01:25:32.275Z,62.53
2023-01-17T01:26:32.280Z,52.55
2023-01-17T01:27:32.246Z,48.33
2023-01-17T01:28:32.280Z,51.71
2023-01-17T01:29:33.237Z,53.56
2023-01-17T01:30:32.223Z,43.64
2023-01-17T01:31:32.287Z,53.08
2023-01-17T01:32:32.213Z,50.99
2023-01-17T01:33:32.200Z,54.24
2023-01-17T01:34:32.200Z,57.26
2023-01-17T01:35:32.175Z,49.38
2023-01-17T01:36:33.174Z,54.00
2023-01-17T01:37:32.167Z,64.93
2023-01-17T01:38:32.166Z,57.65
2023-01-17T01:39:32.156Z,52.23
2023-01-17T01:40:32.153Z,60.85
2023-01-17T01:41:32.142Z,53.68
2023-01-17T01:42:32.127Z,55.83
2023-01-17T01:43:32.118Z,48.19
2023-01-17T01:44:32.118Z,43.83
2023-01-17T01:45:32.131Z,53.97
2023-01-17T01:46:32.108Z,58.22
2023-01-17T01:47:32.094Z,50.16
2023-01-17T01:48:32.074Z,45.40
2023-01-17T01:49:32.078Z,53.91
2023-01-17T01:50:32.064Z,48.00
2023-01-17T01:51:32.568Z,54.14
2023-01-17T01:52:32.584Z,50.87
2023-01-17T01:53:32.048Z,56.25
2023-01-17T01:54:32.037Z,60.63
2023-01-17T01:55:32.029Z,51.94
2023-01-17T01:56:32.023Z,44.74
2023-01-17T01:57:32.008Z,44.36
2023-01-17T01:58:32.015Z,51.30
2023-01-17T01:59:31.993Z,58.04
2023-01-17T02:00:31.995Z,52.44
2023-01-17T02:01:32.279Z,49.22
2023-01-17T02:02:31.965Z,52.48
2023-01-17T02:03:32.009Z,55.15
2023-01-17T02:04:32.948Z,46.76
2023-01-17T02:05:31.943Z,53.82
2023-01-17T02:06:31.946Z,55.34
2023-01-17T02:07:31.925Z,60.59
2023-01-17T02:08:31.921Z,54.17
2023-01-17T02:09:31.911Z,46.40
2023-01-17T02:10:31.917Z,54.91
2023-01-17T02:11:31.924Z,56.48
2023-01-17T02:12:31.894Z,49.94
2023-01-17T02:13:31.881Z,53.46
2023-01-17T02:14:31.875Z,52.03
2023-01-17T02:15:31.871Z,50.64
2023-01-17T02:16:31.905Z,52.42
2023-01-17T02:17:32.506Z,52.80
2023-01-17T02:18:31.850Z,46.01
2023-01-17T02:19:31.851Z,51.07
2023-01-17T02:20:31.837Z,63.56
2023-01-17T02:21:31.831Z,52.00
2023-01-17T02:22:31.811Z,53.64
2023-01-17T02:23:31.804Z,61.48
2023-01-17T02:24:31.802Z,57.98
2023-01-17T02:25:31.793Z,56.21
2023-01-17T02:26:31.791Z,51.46
2023-01-17T02:27:31.786Z,49.64
2023-01-17T02:28:31.773Z,61.43
2023-01-17T02:29:31.763Z,64.91
2023-01-17T02:30:31.759Z,61.63
2023-01-17T02:31:31.813Z,58.04
2023-01-17T02:32:31.743Z,47.14
2023-01-17T02:33:31.739Z,49.74
2023-01-17T02:34:31.716Z,55.63
2023-01-17T02:35:31.708Z,49.16
2023-01-17T02:36:31.739Z,51.51
2023-01-17T02:37:31.698Z,46.84
2023-01-17T02:38:31.685Z,42.54
2023-01-17T02:39:31.690Z,56.64
2023-01-17T02:40:31.678Z,44.54
2023-01-17T02:41:31.672Z,57.11
2023-01-17T02:42:31.659Z,47.85
2023-01-17T02:43:31.645Z,50.48
2023-01-17T02:44:31.699Z,47.55
2023-01-17T02:45:31.675Z,56.22
2023-01-17T02:46:31.637Z,53.04
2023-01-17T02:47:31.621Z,50.01
2023-01-17T02:48:31.615Z,59.88
2023-01-17T02:49:31.610Z,50.79
2023-01-17T02:50:31.595Z,53.59
2023-01-17T02:51:31.596Z,44.73
2023-01-17T02:52:31.583Z,47.96
2023-01-17T02:53:31.575Z,55.88
2023-01-17T02:54:31.553Z,59.60
2023-01-17T02:55:31.555Z,53.91
2023-01-17T02:56:32.581Z,60.50
2023-01-17T02:57:32.547Z,48.46
2023-01-17T02:58:31.526Z,51.42
2023-01-17T02:59:31.519Z,63.55
2023-01-17T03:00:31.527Z,51.89
2023-01-17T03:01:31.616Z,49.47
2023-01-17T03:02:31.542Z,53.25
2023-01-17T03:03:31.495Z,52.27
2023-01-17T03:04:31.479Z,57.40
2023-01-17T03:05:31.487Z,46.93
2023-01-17T03:06:31.485Z,62.25
2023-01-17T03:07:31.473Z,45.63
2023-01-17T03:08:31.480Z,47.23
2023-01-17T03:09:31.447Z,57.34
2023-01-17T03:10:31.439Z,49.90
2023-01-17T03:11:31.427Z,58.66
2023-01-17T03:12:31.419Z,61.25
2023-01-17T03:13:31.434Z,59.59
2023-01-17T03:14:31.409Z,51.33
2023-01-17T03:15:31.398Z,48.30
2023-01-17T03:16:31.469Z,43.67
2023-01-17T03:17:31.387Z,52.27
2023-01-17T03:18:31.370Z,49.00
2023-01-17T03:19:31.378Z,58.16
2023-01-17T03:20:31.358Z,49.40
2023-01-17T03:21:31.352Z,56.31
2023-01-17T03:22:31.349Z,48.80
2023-01-17T03:23:31.346Z,57.28
2023-01-17T03:24:31.329Z,58.05
2023-01-17T03:25:31.323Z,54.52
2023-01-17T03:26:31.318Z,45.57
2023-01-17T03:27:31.304Z,56.23
2023-01-17T03:28:31.295Z,56.68
2023-01-17T03:29:31.300Z,52.08
2023-01-17T03:30:31.370Z,54.33
2023-01-17T03:31:31.288Z,55.50
2023-01-17T03:32:31.276Z,44.38
2023-01-17T03:33:31.260Z,55.99
2023-01-17T03:34:31.265Z,55.16
2023-01-17T03:35:32.088Z,53.75
2023-01-17T03:36:31.237Z,61.39
2023-01-17T03:37:31.241Z,58.40
2023-01-17T03:38:31.219Z,53.15
2023-01-17T03:39:31.217Z,56.98
2023-01-17T03:40:31.207Z,49.06
2023-01-17T03:41:31.203Z,47.56
2023-01-17T03:42:31.186Z,53.93
2023-01-17T03:43:31.191Z,52.99
2023-01-17T03:44:31.187Z,61.41
2023-01-17T03:45:31.231Z,46.35
2023-01-17T03:46:31.182Z,49.33
2023-01-17T03:47:31.153Z,47.94
2023-01-17T03:48:31.154Z,59.70
2023-01-17T03:49:31.155Z,50.62
2023-01-17T03:50:31.132Z,53.71
2023-01-17T03:51:31.128Z,54.48
2023-01-17T03:52:31.120Z,57.95
2023-01-17T03:53:31.109Z,57.27
2023-01-17T03:54:31.104Z,58.98
2023-01-17T03:55:31.091Z,62.91
2023-01-17T03:56:31.082Z,64.14
2023-01-17T03:57:31.071Z,61.00
2023-01-17T03:58:31.067Z,58.07
2023-01-17T03:59:31.061Z,55.79
2023-01-17T04:00:31.050Z,57.80
2023-01-17T04:01:31.146Z,55.60
2023-01-17T04:02:31.073Z,59.17
2023-01-17T04:03:31.029Z,56.64
2023-01-17T04:04:31.024Z,47.70
2023-01-17T04:05:31.012Z,59.45
2023-01-17T04:06:31.013Z,57.60
2023-01-17T04:07:30.994Z,52.57
2023-01-17T04:08:30.990Z,55.88
2023-01-17T04:09:30.997Z,59.78
2023-01-17T04:10:30.975Z,63.56
2023-01-17T04:11:31.600Z,59.62
2023-01-17T04:12:30.959Z,58.75
2023-01-17T04:13:30.947Z,61.40
2023-01-17T04:14:30.956Z,60.77
2023-01-17T04:15:30.932Z,55.46
2023-01-17T04:16:30.961Z,62.08
2023-01-17T04:17:30.932Z,59.44
2023-01-17T04:18:30.918Z,58.88
2023-01-17T04:19:30.910Z,63.77
2023-01-17T04:20:30.943Z,60.88
2023-01-17T04:21:30.886Z,59.38
2023-01-17T04:22:30.896Z,63.53
2023-01-17T04:23:30.878Z,63.99
2023-01-17T04:24:30.868Z,59.45
2023-01-17T04:25:31.026Z,59.90
2023-01-17T04:26:30.859Z,59.23
2023-01-17T04:27:30.867Z,64.09
2023-01-17T04:28:30.841Z,62.09
2023-01-17T04:29:30.829Z,63.21
2023-01-17T04:30:30.849Z,60.82
2023-01-17T04:31:30.843Z,61.96
2023-01-17T04:32:30.807Z,61.72
2023-01-17T04:33:30.814Z,62.35
2023-01-17T04:34:30.798Z,63.87
2023-01-17T04:35:31.522Z,63.04
2023-01-17T04:36:30.793Z,62.10
2023-01-17T04:37:30.779Z,62.82
2023-01-17T04:38:30.777Z,64.11
2023-01-17T04:39:30.763Z,63.18
2023-01-17T04:40:30.758Z,66.60
2023-01-17T04:41:30.746Z,64.14
2023-01-17T04:42:30.736Z,59.76
2023-01-17T04:43:30.732Z,63.41
2023-01-17T04:44:30.726Z,63.12
2023-01-17T04:45:30.716Z,60.87
2023-01-17T04:46:30.729Z,61.40
2023-01-17T04:47:30.712Z,62.75
2023-01-17T04:48:30.690Z,59.98
2023-01-17T04:49:30.691Z,61.12
2023-01-17T04:50:30.676Z,61.39
2023-01-17T04:51:30.669Z,64.59
2023-01-17T04:52:30.656Z,65.57
2023-01-17T04:53:30.649Z,63.66
2023-01-17T04:54:30.642Z,66.48
2023-01-17T04:55:30.632Z,64.07
2023-01-17T04:56:30.633Z,64.04
2023-01-17T04:57:30.616Z,62.25
2023-01-17T04:58:30.637Z,62.09
2023-01-17T04:59:30.605Z,62.49
2023-01-17T05:00:30.600Z,63.08
2023-01-17T05:01:30.725Z,58.77
2023-01-17T05:02:30.602Z,59.47
2023-01-17T05:03:30.572Z,67.00
2023-01-17T05:04:30.559Z,64.73
2023-01-17T05:05:30.559Z,63.81
2023-01-17T05:06:30.571Z,62.91
2023-01-17T05:07:30.557Z,58.74
2023-01-17T05:08:30.553Z,63.48
2023-01-17T05:09:30.537Z,64.12
2023-01-17T05:10:30.516Z,61.27
2023-01-17T05:11:30.508Z,61.89
2023-01-17T05:12:30.525Z,62.62
2023-01-17T05:13:30.496Z,63.47
2023-01-17T05:14:30.488Z,64.81
2023-01-17T05:15:30.508Z,62.87
2023-01-17T05:16:30.467Z,62.65
2023-01-17T05:17:30.475Z,64.48
2023-01-17T05:18:30.454Z,64.97
2023-01-17T05:19:30.448Z,64.32
2023-01-17T05:20:30.438Z,67.92
2023-01-17T05:21:30.431Z,66.49
2023-01-17T05:22:30.419Z,66.45
2023-01-17T05:23:30.418Z,63.37
2023-01-17T05:24:30.425Z,66.39
2023-01-17T05:25:30.399Z,64.35
2023-01-17T05:26:31.105Z,67.46
2023-01-17T05:27:30.378Z,65.39
2023-01-17T05:28:30.371Z,63.76
2023-01-17T05:29:30.399Z,63.32
2023-01-17T05:30:30.371Z,64.95
2023-01-17T05:31:30.355Z,65.63
2023-01-17T05:32:30.341Z,65.60
2023-01-17T05:33:30.347Z,63.21
2023-01-17T05:34:30.316Z,62.77
2023-01-17T05:35:30.339Z,64.24
2023-01-17T05:36:30.316Z,67.05
2023-01-17T05:37:30.312Z,66.15
2023-01-17T05:38:30.314Z,67.55
2023-01-17T05:39:30.292Z,65.79
2023-01-17T05:40:30.298Z,62.55
2023-01-17T05:41:30.268Z,63.78
2023-01-17T05:42:30.261Z,66.33
2023-01-17T05:43:30.267Z,61.64
2023-01-17T05:44:30.247Z,63.88
2023-01-17T05:45:30.232Z,64.05
2023-01-17T05:46:30.275Z,63.52
2023-01-17T05:47:30.229Z,62.05
2023-01-17T05:48:30.216Z,65.43
2023-01-17T05:49:30.210Z,64.85
2023-01-17T05:50:30.220Z,66.97
2023-01-17T05:51:30.201Z,66.42
2023-01-17T05:52:30.195Z,68.63
2023-01-17T05:53:30.200Z,64.35
2023-01-17T05:54:30.168Z,67.85
2023-01-17T05:55:30.193Z,66.90
2023-01-17T05:56:30.168Z,66.16
2023-01-17T05:57:30.151Z,65.03
2023-01-17T05:58:30.142Z,66.27
2023-01-17T05:59:37.133Z,64.86
2023-01-17T06:00:32.125Z,66.57
2023-01-17T06:01:30.128Z,65.87
2023-01-17T06:02:30.129Z,68.61
2023-01-17T06:03:30.109Z,67.84
2023-01-17T06:04:30.185Z,67.55
2023-01-17T06:05:30.635Z,62.97
2023-01-17T06:06:30.074Z,65.87
2023-01-17T06:07:30.067Z,66.27
2023-01-17T06:08:30.058Z,68.87
2023-01-17T06:09:30.091Z,66.44
2023-01-17T06:10:30.048Z,64.30
2023-01-17T06:11:30.045Z,68.05
2023-01-17T06:12:30.058Z,66.63
2023-01-17T06:13:30.015Z,65.48
2023-01-17T06:14:30.012Z,64.69
2023-01-17T06:15:29.999Z,66.52
2023-01-17T06:16:30.024Z,67.05
2023-01-17T06:17:30.530Z,65.65
2023-01-17T06:18:29.969Z,66.84
2023-01-17T06:19:29.978Z,67.99
2023-01-17T06:20:29.964Z,71.86
2023-01-17T06:21:29.958Z,70.70
2023-01-17T06:22:29.955Z,66.19
2023-01-17T06:23:29.943Z,68.35
2023-01-17T06:24:29.930Z,67.75
2023-01-17T06:25:29.942Z,66.35
2023-01-17T06:26:29.927Z,65.96
2023-01-17T06:27:29.921Z,67.88
2023-01-17T06:28:29.900Z,67.29
2023-01-17T06:29:29.897Z,67.57
2023-01-17T06:30:29.892Z,68.57
2023-01-17T06:31:30.603Z,69.71
2023-01-17T06:32:29.877Z,67.44
2023-01-17T06:33:29.864Z,69.54
2023-01-17T06:34:30.538Z,68.46
2023-01-17T06:35:29.856Z,67.93
2023-01-17T06:36:29.849Z,68.61
2023-01-17T06:37:31.059Z,67.32
2023-01-17T06:38:29.849Z,69.62
2023-01-17T06:39:31.615Z,67.91
2023-01-17T06:40:29.825Z,68.15
2023-01-17T06:41:29.812Z,69.52
2023-01-17T06:42:29.795Z,67.08
2023-01-17T06:43:29.790Z,68.54
2023-01-17T06:44:29.774Z,65.91
2023-01-17T06:45:29.775Z,67.72
2023-01-17T06:46:29.801Z,67.15
2023-01-17T06:47:30.618Z,65.23
2023-01-17T06:48:29.751Z,65.81
2023-01-17T06:49:29.759Z,68.04
2023-01-17T06:50:30.623Z,68.22
2023-01-17T06:51:29.717Z,69.38
2023-01-17T06:52:29.726Z,68.63
2023-01-17T06:53:29.710Z,67.63
2023-01-17T06:54:29.703Z,69.81
2023-01-17T06:55:29.695Z,67.40
2023-01-17T06:56:29.693Z,69.10
2023-01-17T06:57:30.566Z,72.57
2023-01-17T06:58:30.668Z,69.76
2023-01-17T06:59:29.663Z,69.18
2023-01-17T07:00:30.338Z,69.23
2023-01-17T07:01:29.789Z,71.24
2023-01-17T07:02:29.660Z,68.38
2023-01-17T07:03:29.662Z,66.40
2023-01-17T07:04:38.110Z,65.49
2023-01-17T07:05:29.636Z,67.44
2023-01-17T07:06:29.621Z,69.17
2023-01-17T07:07:29.613Z,68.93
2023-01-17T07:08:29.703Z,69.58
2023-01-17T07:09:30.575Z,67.22
2023-01-17T07:10:35.216Z,66.03
2023-01-17T07:13:40.091Z,64.82
2023-01-17T07:14:40.007Z,66.31
2023-01-17T07:15:40.384Z,68.09
2023-01-17T07:16:41.070Z,66.04
2023-01-17T07:17:41.067Z,65.80
2023-01-17T07:18:41.056Z,66.95
2023-01-17T07:19:41.046Z,70.26
2023-01-17T07:20:41.048Z,70.34
2023-01-17T07:21:41.041Z,65.84
2023-01-17T07:22:41.022Z,68.94
2023-01-17T07:23:41.019Z,66.80
2023-01-17T07:24:41.943Z,66.82
2023-01-17T07:25:41.008Z,64.19
2023-01-17T07:28:48.353Z,65.21
2023-01-17T07:29:49.441Z,66.66
2023-01-17T07:30:49.431Z,67.63
2023-01-17T07:31:49.458Z,67.95
2023-01-17T07:32:49.436Z,66.58
2023-01-17T07:33:50.297Z,69.48
2023-01-17T07:34:49.383Z,66.23
2023-01-17T07:35:49.401Z,67.23
2023-01-17T07:36:49.387Z,67.45
2023-01-17T07:37:49.378Z,69.80
2023-01-17T07:38:49.361Z,64.49
2023-01-17T07:39:49.385Z,68.30
2023-01-17T07:40:49.354Z,66.95
2023-01-17T07:41:49.344Z,64.33
2023-01-17T07:42:49.345Z,66.12
2023-01-17T07:43:49.329Z,66.02
2023-01-17T07:44:49.322Z,66.45
2023-01-17T07:45:49.312Z,66.93
2023-01-17T07:46:49.455Z,64.94
2023-01-17T07:47:49.291Z,64.47
2023-01-17T07:50:55.574Z,65.32
2023-01-17T07:51:58.518Z,67.32
2023-01-17T07:52:56.663Z,66.14
2023-01-17T07:53:56.651Z,67.86
2023-01-17T07:54:57.476Z,67.00
2023-01-17T07:55:56.699Z,65.86
2023-01-17T07:56:56.627Z,67.91
2023-01-17T07:57:56.621Z,70.01
2023-01-17T07:58:56.617Z,66.68
2023-01-17T07:59:56.603Z,67.26
2023-01-17T08:00:56.700Z,66.44
2023-01-17T08:01:56.795Z,66.39
2023-01-17T08:02:56.566Z,66.14
2023-01-17T08:03:56.640Z,68.99
2023-01-17T08:04:56.554Z,64.15
2023-01-17T08:05:56.538Z,65.02
2023-01-17T08:06:56.549Z,64.84
2023-01-17T08:10:03.084Z,66.37
2023-01-17T08:11:04.177Z,66.45
2023-01-17T08:12:04.200Z,66.01
2023-01-17T08:13:04.163Z,63.91
2023-01-17T08:14:04.195Z,63.61
2023-01-17T08:15:04.140Z,64.05
2023-01-17T08:16:04.211Z,65.42
2023-01-17T08:17:04.136Z,67.37
2023-01-17T08:18:04.108Z,67.17
2023-01-17T08:19:04.703Z,66.96
2023-01-17T08:20:04.103Z,69.14
2023-01-17T08:21:04.138Z,69.09
2023-01-17T08:22:04.096Z,67.09
2023-01-17T08:23:04.078Z,66.00
2023-01-17T08:24:04.064Z,66.74
2023-01-17T08:25:04.094Z,66.80
2023-01-17T08:26:04.047Z,65.96
2023-01-17T08:27:04.056Z,64.87
2023-01-17T08:28:04.036Z,67.25
2023-01-17T08:29:04.036Z,67.65
2023-01-17T08:30:05.023Z,67.08
2023-01-17T08:31:04.815Z,69.81
2023-01-17T08:32:04.017Z,67.54
2023-01-17T08:33:03.991Z,66.86
2023-01-17T08:34:03.979Z,68.09
2023-01-17T08:35:04.105Z,66.11
2023-01-17T08:36:03.962Z,66.97
2023-01-17T08:37:03.951Z,66.31
2023-01-17T08:38:03.946Z,67.48
2023-01-17T08:39:03.943Z,66.00
2023-01-17T08:40:03.956Z,67.88
2023-01-17T08:41:03.925Z,66.65
2023-01-17T08:42:03.934Z,66.34
2023-01-17T08:43:03.931Z,64.73
2023-01-17T08:44:03.897Z,65.21
2023-01-17T08:45:03.910Z,66.35
2023-01-17T08:46:04.771Z,64.92
2023-01-17T08:47:04.745Z,65.26
2023-01-17T08:48:03.873Z,65.54
2023-01-17T08:49:03.873Z,67.02
2023-01-17T08:50:03.844Z,68.67
2023-01-17T08:51:04.859Z,65.90
2023-01-17T08:52:03.833Z,68.97
2023-01-17T08:53:03.834Z,67.69
2023-01-17T08:54:03.837Z,64.55
2023-01-17T08:55:03.885Z,66.60
2023-01-17T08:56:03.812Z,66.27
2023-01-17T08:57:03.796Z,64.97
2023-01-17T08:58:03.858Z,67.25
2023-01-17T08:59:03.822Z,66.32
2023-01-17T09:00:04.353Z,65.62
2023-01-17T09:01:04.924Z,66.69
2023-01-17T09:02:03.885Z,66.56
2023-01-17T09:03:03.777Z,66.84
2023-01-17T09:04:03.790Z,65.42
2023-01-17T09:05:03.767Z,65.42
2023-01-17T09:06:03.735Z,65.61
2023-01-17T09:07:03.713Z,65.02
2023-01-17T09:08:04.318Z,67.29
2023-01-17T09:09:04.699Z,66.50
2023-01-17T09:10:03.696Z,65.77
2023-01-17T09:11:03.691Z,65.85
2023-01-17T09:12:03.671Z,64.58
2023-01-17T09:13:03.683Z,63.86
2023-01-17T09:14:03.683Z,62.87
2023-01-17T09:15:03.659Z,67.12
2023-01-17T09:16:03.643Z,64.63
2023-01-17T09:17:09.275Z,66.13
2023-01-17T09:18:03.641Z,66.66
2023-01-17T09:19:04.358Z,66.90
2023-01-17T09:20:03.618Z,71.07
2023-01-17T09:21:03.607Z,68.18
2023-01-17T09:22:03.585Z,65.21
2023-01-17T09:23:04.273Z,65.61
2023-01-17T09:24:03.588Z,66.13
2023-01-17T09:25:03.578Z,66.27
2023-01-17T09:26:03.564Z,67.58
2023-01-17T09:27:03.569Z,65.93
2023-01-17T09:28:03.541Z,66.11
2023-01-17T09:29:03.550Z,65.71
2023-01-17T09:30:03.530Z,68.71
2023-01-17T09:31:03.615Z,67.90
2023-01-17T09:32:03.510Z,66.67
2023-01-17T09:33:03.514Z,67.11
2023-01-17T09:34:03.493Z,67.83
2023-01-17T09:35:03.504Z,67.62
2023-01-17T09:36:03.481Z,66.90
2023-01-17T09:37:03.498Z,66.94
2023-01-17T09:38:03.460Z,69.03
2023-01-17T09:39:03.457Z,65.86
2023-01-17T09:40:03.453Z,64.51
2023-01-17T09:41:03.463Z,65.43
2023-01-17T09:42:03.430Z,66.85
2023-01-17T09:43:03.459Z,66.25
2023-01-17T09:44:03.421Z,67.11
2023-01-17T09:45:03.433Z,66.45
2023-01-17T09:46:03.676Z,66.74
2023-01-17T09:49:10.631Z,66.43
2023-01-17T09:50:11.349Z,69.12
2023-01-17T09:51:11.341Z,66.93
2023-01-17T09:52:11.338Z,66.43
2023-01-17T09:53:11.328Z,65.79
2023-01-17T09:54:11.319Z,66.14
2023-01-17T09:55:11.304Z,67.62
2023-01-17T09:56:11.303Z,67.13
2023-01-17T09:57:11.285Z,67.16
2023-01-17T09:58:11.289Z,66.53
2023-01-17T09:59:11.278Z,66.02
2023-01-17T10:00:11.263Z,65.90
2023-01-17T10:01:11.417Z,64.76
2023-01-17T10:02:11.517Z,65.61
2023-01-17T10:03:11.364Z,65.00
2023-01-17T10:04:11.240Z,67.80
2023-01-17T10:05:11.254Z,66.74
2023-01-17T10:06:11.240Z,65.49
2023-01-17T10:07:11.234Z,65.80
2023-01-17T10:08:11.221Z,67.95
2023-01-17T10:09:11.198Z,64.21
2023-01-17T10:10:11.191Z,67.26
2023-01-17T10:11:11.197Z,67.88
2023-01-17T10:12:11.191Z,66.13
2023-01-17T10:13:12.632Z,64.33
2023-01-17T10:14:11.164Z,64.65
2023-01-17T10:17:17.998Z,68.59
2023-01-17T10:18:29.221Z,69.82
2023-01-17T10:19:19.021Z,68.53
2023-01-17T10:20:18.001Z,70.12
2023-01-17T10:21:19.810Z,67.23
2023-01-17T10:22:19.154Z,64.55
2023-01-17T10:23:19.812Z,66.84
2023-01-17T10:24:19.972Z,67.43
2023-01-17T10:25:25.402Z,65.82
2023-01-17T10:26:28.304Z,69.07
2023-01-17T10:27:28.313Z,66.79
2023-01-17T10:28:42.829Z,65.61
2023-01-17T10:30:08.814Z,69.95
2023-01-17T10:31:13.478Z,67.84
2023-01-17T10:31:18.972Z,66.33
2023-01-17T10:32:19.487Z,65.72
2023-01-17T10:33:18.956Z,64.63
2023-01-17T10:34:18.946Z,65.32
2023-01-17T10:35:18.939Z,67.38
2023-01-17T10:36:18.945Z,67.50
2023-01-17T10:37:18.961Z,65.04
2023-01-17T10:38:18.957Z,67.66
2023-01-17T10:39:18.925Z,65.89
2023-01-17T10:40:18.941Z,66.72
2023-01-17T10:41:19.888Z,67.58
2023-01-17T10:42:18.884Z,67.51
2023-01-17T10:43:18.870Z,65.69
2023-01-17T10:44:18.866Z,66.94
2023-01-17T10:45:18.851Z,64.95
2023-01-17T10:46:18.928Z,65.33
2023-01-17T10:47:18.837Z,65.49
2023-01-17T10:48:18.834Z,66.51
2023-01-17T10:49:18.827Z,66.81
2023-01-17T10:50:18.827Z,65.72
2023-01-17T10:51:18.851Z,65.59
2023-01-17T10:52:18.816Z,65.50
2023-01-17T10:53:18.793Z,67.09
2023-01-17T10:54:18.784Z,66.24
2023-01-17T10:55:20.505Z,66.19
2023-01-17T10:56:19.411Z,67.63
2023-01-17T10:57:18.758Z,65.75
2023-01-17T10:58:18.758Z,66.24
2023-01-17T10:59:18.781Z,67.79
2023-01-17T11:00:18.724Z,65.41
2023-01-17T11:01:18.780Z,67.03
2023-01-17T11:02:18.873Z,66.27
2023-01-17T11:03:18.730Z,67.80
2023-01-17T11:04:18.763Z,64.94
2023-01-17T11:05:18.688Z,64.71
2023-01-17T11:06:18.718Z,65.53
2023-01-17T11:07:18.724Z,65.09
2023-01-17T11:08:18.671Z,66.57
2023-01-17T21:26:39.765Z,59.14
2023-01-17T21:27:40.855Z,66.29
2023-01-17T21:28:40.842Z,62.99
2023-01-17T21:29:40.842Z,62.28
2023-01-17T21:30:40.931Z,59.09
2023-01-17T21:31:40.832Z,62.22
2023-01-17T21:32:40.809Z,63.84
2023-01-17T21:33:40.801Z,59.82
2023-01-17T21:34:41.418Z,62.19
2023-01-17T21:35:40.785Z,64.08
2023-01-17T21:36:40.803Z,64.73
2023-01-17T21:37:40.771Z,62.71
2023-01-17T21:38:40.778Z,57.76
2023-01-17T21:39:40.759Z,59.67
2023-01-17T21:40:40.747Z,61.43
2023-01-17T21:41:40.741Z,60.69
2023-01-17T21:42:40.732Z,60.70
2023-01-17T21:43:40.739Z,62.58
2023-01-17T21:44:40.717Z,53.66
2023-01-17T21:45:40.719Z,59.23
2023-01-17T21:46:40.711Z,58.98
2023-01-17T21:47:40.706Z,60.68
2023-01-17T21:48:40.704Z,59.59
2023-01-17T21:49:40.698Z,58.91
2023-01-17T21:50:40.680Z,55.15
2023-01-17T21:51:40.669Z,62.93
2023-01-17T21:52:40.662Z,62.08
2023-01-17T21:53:40.658Z,61.21
2023-01-17T21:54:40.662Z,59.82
2023-01-17T21:55:40.642Z,61.44
2023-01-17T21:56:40.628Z,56.61
2023-01-17T21:57:40.662Z,60.79
2023-01-17T21:58:40.663Z,60.19
2023-01-17T21:59:40.617Z,56.99
2023-01-17T22:00:41.509Z,60.65
2023-01-17T22:01:41.597Z,60.50
2023-01-17T22:02:40.620Z,60.19
2023-01-17T22:03:40.616Z,61.47
2023-01-17T22:04:40.574Z,61.49
2023-01-17T22:05:40.572Z,56.36
2023-01-17T22:06:40.545Z,57.94
2023-01-17T22:07:40.543Z,57.92
2023-01-17T22:08:40.541Z,55.27
2023-01-17T22:09:40.528Z,55.14
2023-01-17T22:10:40.529Z,59.89
2023-01-17T22:11:40.529Z,57.38
2023-01-17T22:12:41.479Z,58.93
2023-01-17T22:13:41.422Z,64.67
2023-01-17T22:14:40.488Z,65.35
2023-01-17T22:15:41.050Z,61.97
2023-01-17T22:16:40.481Z,59.99
2023-01-17T22:17:40.462Z,58.71
2023-01-17T22:18:40.472Z,58.89
2023-01-17T22:19:40.459Z,59.36
2023-01-17T22:20:40.455Z,60.17
2023-01-17T22:21:40.462Z,56.32
2023-01-17T22:22:40.429Z,58.38
2023-01-17T22:23:40.433Z,60.91
2023-01-17T22:24:40.458Z,62.11
2023-01-17T22:25:40.421Z,56.01
2023-01-17T22:26:41.908Z,48.40
2023-01-17T22:27:41.393Z,55.69
2023-01-17T22:28:41.383Z,56.87
2023-01-17T22:29:40.385Z,53.62
2023-01-17T22:30:40.405Z,54.28
2023-01-17T22:31:40.370Z,64.04
2023-01-17T22:32:40.376Z,57.72
2023-01-17T22:33:40.352Z,59.01
2023-01-17T22:34:40.342Z,61.21
2023-01-17T22:35:40.367Z,59.62
2023-01-17T22:36:40.324Z,59.81
2023-01-17T22:37:40.316Z,67.84
2023-01-17T22:38:40.315Z,58.92
2023-01-17T22:39:40.341Z,61.82
2023-01-17T22:40:40.924Z,55.05
2023-01-17T22:41:40.289Z,52.49
2023-01-17T22:42:40.279Z,60.03
2023-01-17T22:43:40.286Z,66.07
2023-01-17T22:44:40.279Z,54.88
2023-01-17T22:45:40.273Z,56.88
2023-01-17T22:46:40.396Z,58.39
2023-01-17T22:47:40.249Z,60.53
2023-01-17T22:48:40.232Z,58.94
2023-01-17T22:49:40.228Z,57.62
2023-01-17T22:50:40.920Z,62.77
2023-01-17T22:51:40.203Z,55.79
2023-01-17T22:52:40.197Z,60.12
2023-01-17T22:53:40.196Z,58.92
2023-01-17T22:54:40.175Z,54.37
2023-01-17T22:55:40.187Z,53.76
2023-01-17T22:56:40.179Z,51.77
2023-01-17T22:57:40.150Z,60.31
2023-01-17T22:58:40.146Z,53.60
2023-01-17T22:59:40.136Z,58.73
2023-01-17T23:00:40.130Z,51.86
2023-01-17T23:01:40.157Z,57.15
2023-01-17T23:02:40.155Z,61.97
2023-01-17T23:03:40.182Z,64.69
2023-01-17T23:04:40.096Z,56.33
2023-01-17T23:05:40.087Z,56.87
2023-01-17T23:06:40.090Z,48.40
2023-01-17T23:07:40.079Z,48.54
2023-01-17T23:08:40.079Z,53.60
2023-01-17T23:09:40.066Z,52.87
2023-01-17T23:10:40.052Z,57.18
2023-01-17T23:11:40.048Z,59.48
2023-01-17T23:12:40.067Z,57.85
2023-01-17T23:13:40.037Z,54.17
2023-01-17T23:14:40.023Z,62.65
2023-01-17T23:15:43.964Z,58.09
2023-01-17T23:16:41.004Z,59.79
2023-01-17T23:17:43.502Z,58.90
2023-01-17T23:18:39.995Z,54.55
2023-01-17T23:19:40.015Z,57.72
2023-01-17T23:20:40.070Z,60.16
2023-01-17T23:21:40.052Z,57.12
2023-01-17T23:22:40.182Z,61.09
2023-01-17T23:23:39.948Z,60.00
2023-01-17T23:24:39.952Z,57.66